Time;durP1;ratioP1;P1;durP2;ratioP2;P2;SDS_P1;SDS_P2;PMS_P1;PMS_P2;Temp;Humidity;BMP_temperature;BMP_pressure;BME280_temperature;BME280_humidity;BME280_pressure;Samples;Min_cycle;Max_cycle;Signal;HPM_P1;HPM_P2
2023/03/03 00:02:21;;;;;;;23.17;10.20;;;4.60;99.90;;;;;;5072750;28;20051;-71
2023/03/03 00:04:47;;;;;;;25.80;11.32;;;4.60;99.90;;;;;;5071219;28;20065;-72
2023/03/03 00:07:20;;;;;;;22.95;10.13;;;4.50;99.90;;;;;;5071220;28;20356;-72
2023/03/03 00:09:46;;;;;;;22.30;10.93;;;4.70;99.90;;;;;;5072292;28;20037;-72
2023/03/03 00:12:25;;;;;;;27.30;11.85;;;4.60;99.90;;;;;;5072036;28;20028;-72
2023/03/03 00:14:52;;;;;;;26.25;10.40;;;4.60;99.90;;;;;;5071295;28;20052;-71
2023/03/03 00:17:23;;;;;;;25.30;10.27;;;4.40;99.90;;;;;;5072476;28;20027;-72
2023/03/03 00:19:49;;;;;;;21.60;9.63;;;4.30;99.90;;;;;;5072107;28;20037;-70
2023/03/03 00:22:30;;;;;;;25.60;10.65;;;4.40;99.90;;;;;;5070788;28;20036;-71
2023/03/03 00:25:37;;;;;;;23.02;9.70;;;4.50;99.90;;;;;;5071881;28;20174;-70
2023/03/03 00:28:26;;;;;;;21.50;9.68;;;4.60;99.90;;;;;;5071416;28;20021;-71
2023/03/03 00:30:53;;;;;;;25.58;10.57;;;4.60;99.90;;;;;;5070553;28;20044;-72
2023/03/03 00:33:22;;;;;;;24.63;9.93;;;4.70;99.90;;;;;;5071701;28;20410;-72
2023/03/03 00:35:47;;;;;;;25.90;11.73;;;4.70;99.90;;;;;;5071758;28;20032;-72
2023/03/03 00:38:17;;;;;;;23.67;10.85;;;4.60;99.90;;;;;;5072090;28;20316;-71
2023/03/03 00:40:43;;;;;;;24.05;10.10;;;4.70;99.90;;;;;;5071695;28;20055;-72
2023/03/03 00:43:33;;;;;;;23.00;10.25;;;4.60;99.90;;;;;;5070626;28;20029;-72
2023/03/03 00:45:58;;;;;;;25.50;10.60;;;4.60;99.90;;;;;;5071766;28;20033;-71
2023/03/03 00:48:27;;;;;;;23.08;9.90;;;4.80;99.90;;;;;;5071449;28;20123;-71
2023/03/03 00:50:55;;;;;;;23.48;10.10;;;4.60;99.70;;;;;;5071500;28;20116;-72
2023/03/03 00:53:23;;;;;;;23.85;10.27;;;4.60;99.70;;;;;;5071004;28;20083;-71
2023/03/03 00:55:50;;;;;;;20.83;9.43;;;4.60;99.70;;;;;;5071697;28;20028;-72
2023/03/03 00:58:20;;;;;;;19.40;8.95;;;4.60;99.60;;;;;;5071484;28;20490;-70
2023/03/03 01:00:53;;;;;;;17.95;8.57;;;4.50;99.50;;;;;;5071320;28;20466;-72
2023/03/03 01:03:23;;;;;;;20.83;8.95;;;4.50;99.60;;;;;;5071408;28;20128;-72
2023/03/03 01:05:50;;;;;;;22.25;9.20;;;4.40;99.90;;;;;;5070311;28;20063;-72
2023/03/03 01:08:18;;;;;;;21.67;8.57;;;4.30;99.90;;;;;;5071755;28;20078;-72
2023/03/03 01:10:53;;;;;;;18.50;8.63;;;4.30;99.90;;;;;;5071042;28;20052;-71
2023/03/03 01:13:22;;;;;;;22.75;10.20;;;4.30;99.90;;;;;;5069745;28;20032;-71
2023/03/03 01:15:49;;;;;;;20.27;9.05;;;4.40;99.90;;;;;;5070988;28;20116;-71
2023/03/03 01:18:14;;;;;;;19.35;9.10;;;4.50;99.70;;;;;;5070804;28;20509;-71
2023/03/03 01:20:40;;;;;;;20.88;9.77;;;4.40;99.80;;;;;;5069732;28;20111;-71
2023/03/03 01:23:06;;;;;;;20.58;9.40;;;4.40;99.80;;;;;;5071110;28;20017;-71
2023/03/03 01:25:33;;;;;;;20.77;8.73;;;4.30;99.90;;;;;;5070511;28;20039;-71
2023/03/03 01:27:59;;;;;;;19.48;9.10;;;4.30;99.90;;;;;;5070876;28;20375;-71
2023/03/03 01:30:26;;;;;;;21.38;9.20;;;4.20;99.90;;;;;;5070653;28;20097;-71
2023/03/03 01:32:51;;;;;;;20.63;9.48;;;4.20;99.90;;;;;;5070726;28;20028;-71
2023/03/03 01:35:17;;;;;;;20.40;9.60;;;4.30;99.90;;;;;;5070105;28;20135;-71
2023/03/03 01:37:43;;;;;;;22.27;8.95;;;4.30;99.90;;;;;;5070611;28;20035;-70
2023/03/03 01:40:22;;;;;;;24.40;10.00;;;4.30;99.90;;;;;;5069499;28;20036;-71
2023/03/03 01:42:48;;;;;;;21.08;9.30;;;4.30;99.90;;;;;;5070710;28;20371;-72
2023/03/03 01:45:30;;;;;;;19.40;7.97;;;4.40;99.90;;;;;;5070498;28;20032;-72
2023/03/03 01:48:02;;;;;;;21.02;8.70;;;4.40;99.80;;;;;;5069858;28;20348;-71
2023/03/03 01:50:59;;;;;;;22.63;9.43;;;4.40;99.90;;;;;;5070683;28;20358;-72
2023/03/03 01:53:41;;;;;;;23.02;10.55;;;4.40;99.90;;;;;;5070311;28;20035;-72
2023/03/03 01:56:08;;;;;;;23.75;10.40;;;4.30;99.90;;;;;;5070786;28;20510;-71
2023/03/03 01:58:38;;;;;;;23.85;10.35;;;4.20;99.90;;;;;;5070298;28;20024;-71
2023/03/03 02:01:13;;;;;;;22.38;10.18;;;4.20;99.90;;;;;;5070505;28;20117;-72
2023/03/03 02:03:39;;;;;;;25.45;10.23;;;4.30;99.90;;;;;;5069458;28;20466;-71
2023/03/03 02:06:29;;;;;;;22.92;9.73;;;4.30;99.90;;;;;;5070494;28;20056;-71
2023/03/03 02:08:55;;;;;;;21.80;9.43;;;4.30;99.90;;;;;;5070339;28;20399;-71
2023/03/03 02:11:21;;;;;;;22.98;9.25;;;4.30;99.90;;;;;;5069541;28;20042;-72
2023/03/03 02:13:47;;;;;;;20.23;8.93;;;4.30;99.90;;;;;;5070668;28;20032;-71
2023/03/03 02:16:13;;;;;;;22.15;10.10;;;4.20;99.90;;;;;;5070466;28;20326;-72
2023/03/03 02:18:39;;;;;;;29.45;11.63;;;4.40;99.90;;;;;;5069148;28;20506;-71
2023/03/03 02:21:21;;;;;;;23.77;10.27;;;4.20;99.90;;;;;;5070092;28;20120;-72
2023/03/03 02:24:15;;;;;;;23.80;10.27;;;4.30;99.90;;;;;;5068932;28;20221;-70
2023/03/03 02:26:41;;;;;;;25.98;10.13;;;4.30;99.90;;;;;;5068693;28;20039;-70
2023/03/03 02:29:09;;;;;;;22.92;9.98;;;4.30;99.90;;;;;;5070422;28;20048;-71
2023/03/03 02:31:36;;;;;;;22.40;9.93;;;4.30;99.90;;;;;;5069720;28;20482;-71
2023/03/03 02:34:02;;;;;;;21.55;8.63;;;4.30;99.90;;;;;;5070008;28;20033;-71
2023/03/03 02:36:30;;;;;;;26.67;9.80;;;4.30;99.90;;;;;;5084213;28;20032;-71
2023/03/03 02:39:29;;;;;;;29.50;10.15;;;4.30;99.90;;;;;;5094090;28;20035;-72
2023/03/03 02:42:04;;;;;;;23.80;10.20;;;4.40;99.90;;;;;;5093871;28;20104;-71
2023/03/03 02:44:32;;;;;;;23.95;10.63;;;4.40;99.90;;;;;;5094031;28;20020;-71
2023/03/03 02:46:58;;;;;;;26.13;11.70;;;4.40;99.90;;;;;;5093786;28;20065;-71
2023/03/03 02:49:31;;;;;;;30.05;11.45;;;4.40;99.90;;;;;;5092901;28;20040;-70
2023/03/03 02:51:57;;;;;;;24.23;9.82;;;4.50;99.90;;;;;;5094062;28;20028;-71
2023/03/03 02:54:25;;;;;;;24.60;10.50;;;4.50;99.90;;;;;;5094051;28;20044;-70
2023/03/03 02:56:51;;;;;;;;;;;4.50;99.90;;;;;;5093293;28;20374;-71
2023/03/03 02:59:17;;;;;;;25.67;10.25;;;4.40;99.90;;;;;;5093485;28;19904;-73
2023/03/03 03:01:43;;;;;;;27.13;10.85;;;4.40;99.90;;;;;;5093922;28;20031;-71
2023/03/03 03:04:12;;;;;;;26.10;10.65;;;4.40;99.90;;;;;;5093735;28;20470;-70
2023/03/03 03:06:38;;;;;;;24.48;10.32;;;4.40;99.90;;;;;;5092893;28;20040;-70
2023/03/03 03:09:06;;;;;;;28.98;11.05;;;4.40;99.90;;;;;;5092391;28;20032;-72
2023/03/03 03:11:34;;;;;;;;;;;4.50;99.90;;;;;;5093881;28;20047;-72
2023/03/03 03:14:00;;;;;;;23.88;9.55;;;4.50;99.90;;;;;;5094149;28;19965;-71
2023/03/03 03:16:26;;;;;;;22.90;10.00;;;4.60;99.90;;;;;;5093787;28;20249;-72
2023/03/03 03:18:52;;;;;;;25.20;9.50;;;4.50;99.90;;;;;;5093485;28;20069;-73
2023/03/03 03:21:18;;;;;;;27.98;11.55;;;4.50;99.90;;;;;;5093491;28;20089;-71
2023/03/03 03:23:43;;;;;;;24.58;10.45;;;4.40;99.90;;;;;;5093187;28;20032;-71
2023/03/03 03:26:10;;;;;;;25.08;10.60;;;4.40;99.90;;;;;;5093638;28;20362;-71
2023/03/03 03:28:36;;;;;;;28.27;11.77;;;4.50;99.90;;;;;;5093118;28;20047;-71
2023/03/03 03:31:03;;;;;;;24.35;10.57;;;4.50;99.90;;;;;;5093287;28;20044;-72
2023/03/03 03:33:29;;;;;;;24.35;10.32;;;4.60;99.90;;;;;;5093444;28;20105;-71
2023/03/03 03:35:55;;;;;;;23.10;10.02;;;4.60;99.90;;;;;;5093534;28;20480;-72
2023/03/03 03:38:22;;;;;;;24.15;11.27;;;4.70;99.90;;;;;;5092917;28;20023;-71
2023/03/03 03:40:48;;;;;;;26.27;10.95;;;4.60;99.90;;;;;;5091934;28;20111;-72
2023/03/03 03:43:14;;;;;;;25.55;9.82;;;4.70;99.90;;;;;;5092961;28;20115;-70
2023/03/03 03:45:43;;;;;;;22.65;10.27;;;4.60;99.90;;;;;;5093132;28;20076;-70
2023/03/03 03:48:09;;;;;;;24.98;10.18;;;4.60;99.90;;;;;;5093146;28;20063;-70
2023/03/03 03:50:35;;;;;;;26.02;11.70;;;4.40;99.90;;;;;;5093370;28;20056;-71
2023/03/03 03:53:01;;;;;;;29.60;11.18;;;4.60;99.90;;;;;;5093419;28;20023;-71
2023/03/03 03:55:27;;;;;;;22.90;10.13;;;4.60;99.90;;;;;;5093003;28;20351;-71
2023/03/03 03:57:54;;;;;;;27.30;11.50;;;4.60;99.90;;;;;;5092842;28;20024;-70
2023/03/03 04:00:20;;;;;;;25.85;11.40;;;4.70;99.90;;;;;;5092926;28;20031;-71
2023/03/03 04:02:45;;;;;;;31.70;11.85;;;4.70;99.90;;;;;;5092560;28;20426;-71
2023/03/03 04:05:11;;;;;;;28.30;11.82;;;4.70;99.90;;;;;;5093208;28;20339;-72
2023/03/03 04:07:37;;;;;;;28.17;11.88;;;4.60;99.90;;;;;;5092732;28;20035;-70
2023/03/03 04:10:03;;;;;;;26.23;11.30;;;4.70;99.90;;;;;;5090553;28;20028;-72
2023/03/03 04:12:28;;;;;;;30.33;13.32;;;4.70;99.90;;;;;;5092410;28;20126;-71
2023/03/03 04:14:54;;;;;;;31.55;12.95;;;4.80;99.90;;;;;;5092056;28;20085;-72
2023/03/03 04:17:23;;;;;;;31.17;12.65;;;4.80;99.90;;;;;;5092615;28;20509;-71
2023/03/03 04:19:51;;;;;;;31.58;12.77;;;4.80;99.90;;;;;;5091906;28;20441;-72
2023/03/03 04:22:17;;;;;;;33.30;13.57;;;4.80;99.90;;;;;;5092335;28;20021;-70
2023/03/03 04:24:42;;;;;;;28.85;12.32;;;4.80;99.90;;;;;;5092368;28;20031;-71
2023/03/03 04:27:08;;;;;;;26.33;11.15;;;4.80;99.90;;;;;;5091221;28;20031;-71
2023/03/03 04:29:34;;;;;;;28.25;12.27;;;4.80;99.90;;;;;;5091829;28;20036;-71
2023/03/03 04:32:00;;;;;;;31.55;14.00;;;4.80;99.90;;;;;;5092705;28;20441;-71
2023/03/03 04:34:26;;;;;;;32.83;13.45;;;4.70;99.90;;;;;;5092277;28;20036;-72
2023/03/03 04:36:51;;;;;;;29.45;12.45;;;4.70;99.90;;;;;;5091668;28;20368;-71
2023/03/03 04:39:17;;;;;;;35.75;13.95;;;4.60;99.90;;;;;;5091708;28;20028;-72
2023/03/03 04:41:43;;;;;;;38.05;13.65;;;4.70;99.90;;;;;;5090901;28;20364;-71
2023/03/03 04:44:09;;;;;;;33.03;13.18;;;4.70;99.90;;;;;;5092428;28;20035;-72
2023/03/03 04:46:35;;;;;;;33.83;12.68;;;4.90;99.90;;;;;;5091705;28;20024;-71
2023/03/03 04:49:00;;;;;;;32.67;12.43;;;4.70;99.90;;;;;;5092106;28;20069;-71
2023/03/03 04:51:26;;;;;;;39.28;16.85;;;4.70;99.90;;;;;;5091386;28;20040;-71
2023/03/03 04:53:52;;;;;;;35.08;14.55;;;4.70;99.90;;;;;;5091741;28;20031;-72
2023/03/03 04:56:17;;;;;;;38.05;14.65;;;4.70;99.90;;;;;;5092111;28;20025;-72
2023/03/03 04:58:43;;;;;;;30.92;13.57;;;4.70;99.90;;;;;;5091473;28;20059;-71
2023/03/03 05:01:13;;;;;;;31.40;12.43;;;4.80;99.90;;;;;;5090930;28;20032;-71
2023/03/03 05:03:39;;;;;;;34.25;14.30;;;4.80;99.90;;;;;;5091705;28;20476;-72
2023/03/03 05:06:06;;;;;;;36.00;13.10;;;5.00;99.90;;;;;;5091585;28;20091;-71
2023/03/03 05:08:31;;;;;;;25.13;11.35;;;4.90;99.90;;;;;;5091197;28;20181;-71
2023/03/03 05:10:58;;;;;;;33.35;12.38;;;4.80;99.90;;;;;;5091889;28;20414;-72
2023/03/03 05:13:26;;;;;;;32.27;13.03;;;4.80;99.80;;;;;;5091325;28;20032;-72
2023/03/03 05:15:56;;;;;;;24.60;10.70;;;4.80;99.80;;;;;;5091418;28;20027;-73
2023/03/03 05:18:23;;;;;;;25.80;11.60;;;4.80;99.90;;;;;;5091345;28;20043;-71
2023/03/03 05:20:50;;;;;;;29.67;13.18;;;4.80;99.90;;;;;;5090189;28;20028;-70
2023/03/03 05:23:17;;;;;;;30.88;13.77;;;4.80;99.70;;;;;;5091637;28;20027;-71
2023/03/03 05:25:43;;;;;;;28.30;11.95;;;4.80;99.60;;;;;;5089758;28;20028;-71
2023/03/03 05:28:09;;;;;;;30.88;13.13;;;4.80;99.60;;;;;;5091305;28;20127;-71
2023/03/03 05:30:36;;;;;;;34.35;14.45;;;4.80;99.60;;;;;;5090992;28;20375;-71
2023/03/03 05:33:02;;;;;;;38.00;14.73;;;4.70;99.70;;;;;;5089705;28;20028;-71
2023/03/03 05:35:28;;;;;;;40.58;14.48;;;4.70;99.60;;;;;;5090338;28;20050;-72
2023/03/03 05:37:54;;;;;;;33.22;12.95;;;4.70;99.90;;;;;;5091463;28;20027;-71
2023/03/03 05:40:20;;;;;;;36.40;13.82;;;4.70;99.70;;;;;;5090640;28;20416;-71
2023/03/03 05:42:46;;;;;;;33.17;13.68;;;4.70;99.70;;;;;;5090766;28;20476;-72
2023/03/03 05:45:12;;;;;;;33.88;13.20;;;4.70;99.90;;;;;;5090676;28;20036;-71
2023/03/03 05:47:37;;;;;;;32.33;12.65;;;4.60;99.90;;;;;;5089617;28;20024;-72
2023/03/03 05:50:04;;;;;;;29.95;12.70;;;4.50;99.90;;;;;;5090126;28;20024;-71
2023/03/03 05:52:30;;;;;;;33.42;13.95;;;4.50;99.90;;;;;;5089448;28;20135;-71
2023/03/03 05:54:56;;;;;;;39.90;14.85;;;4.40;99.90;;;;;;5090715;28;20433;-72
2023/03/03 05:57:22;;;;;;;37.42;14.68;;;4.50;99.90;;;;;;5090478;28;20081;-71
2023/03/03 05:59:48;;;;;;;36.08;14.38;;;4.50;99.90;;;;;;5090544;28;20024;-71
2023/03/03 06:02:13;;;;;;;33.28;14.38;;;4.60;99.90;;;;;;5089935;28;20136;-71
2023/03/03 06:04:39;;;;;;;35.00;14.48;;;4.50;99.90;;;;;;5089388;28;20221;-71
2023/03/03 06:07:05;;;;;;;43.42;14.38;;;4.50;99.90;;;;;;5090731;28;20093;-71
2023/03/03 06:09:32;;;;;;;34.20;14.65;;;4.50;99.90;;;;;;5090517;28;20108;-72
2023/03/03 06:11:58;;;;;;;33.90;14.65;;;4.50;99.90;;;;;;5089463;28;20032;-72
2023/03/03 06:14:24;;;;;;;40.17;14.90;;;4.50;99.90;;;;;;5090901;28;20034;-70
2023/03/03 06:16:50;;;;;;;34.88;13.57;;;4.60;99.90;;;;;;5090592;28;20073;-71
2023/03/03 06:19:16;;;;;;;38.38;14.88;;;4.50;99.90;;;;;;5090213;28;20114;-72
2023/03/03 06:21:41;;;;;;;40.75;13.73;;;4.50;99.90;;;;;;5090189;28;20331;-71
2023/03/03 06:24:07;;;;;;;46.50;15.77;;;4.70;99.90;;;;;;5088961;28;20024;-70
2023/03/03 06:26:33;;;;;;;36.83;15.48;;;4.70;99.90;;;;;;5089254;28;20020;-70
2023/03/03 06:29:00;;;;;;;36.10;14.48;;;4.80;99.90;;;;;;5090591;28;20020;-70
2023/03/03 06:31:27;;;;;;;38.30;14.77;;;4.90;99.80;;;;;;5089703;28;20048;-72
2023/03/03 06:33:53;;;;;;;36.00;14.95;;;4.90;99.60;;;;;;5089171;28;20040;-71
2023/03/03 06:36:19;;;;;;;36.83;15.73;;;4.90;99.60;;;;;;5090139;28;20107;-71
2023/03/03 06:38:45;;;;;;;40.05;14.55;;;4.90;99.50;;;;;;5090142;28;20124;-72
2023/03/03 06:41:11;;;;;;;36.25;14.60;;;4.90;99.60;;;;;;5090478;28;20099;-70
2023/03/03 06:43:37;;;;;;;35.53;13.90;;;4.90;99.50;;;;;;5090153;28;20028;-72
2023/03/03 06:46:04;;;;;;;31.90;13.43;;;4.90;99.50;;;;;;5090048;28;20024;-71
2023/03/03 06:48:31;;;;;;;35.08;13.05;;;4.90;99.50;;;;;;5089899;28;20096;-72
2023/03/03 06:50:59;;;;;;;31.02;13.55;;;4.90;99.50;;;;;;5089985;28;20044;-71
2023/03/03 06:53:26;;;;;;;34.88;14.32;;;5.00;99.30;;;;;;5090113;28;20024;-71
2023/03/03 06:55:53;;;;;;;31.23;12.80;;;5.00;99.10;;;;;;5090425;28;20073;-71
2023/03/03 06:58:20;;;;;;;30.67;13.40;;;5.00;99.10;;;;;;5090074;28;20381;-72
2023/03/03 07:01:00;;;;;;;34.47;12.98;;;5.00;99.20;;;;;;5090050;28;20036;-68
2023/03/03 07:03:33;;;;;;;35.60;12.65;;;5.00;99.20;;;;;;5090111;28;20054;-72
2023/03/03 07:06:00;;;;;;;29.30;11.90;;;5.10;99.20;;;;;;5088999;28;20042;-71
2023/03/03 07:08:30;;;;;;;34.10;14.82;;;5.10;99.00;;;;;;5089814;28;20024;-70
2023/03/03 07:11:01;;;;;;;35.47;13.88;;;5.20;99.20;;;;;;5090316;28;20030;-71
2023/03/03 07:13:28;;;;;;;34.22;14.57;;;5.00;99.30;;;;;;5088825;28;20032;-72
2023/03/03 07:16:02;;;;;;;36.67;15.00;;;5.10;99.40;;;;;;5090050;28;20032;-72
2023/03/03 07:18:37;;;;;;;45.25;17.98;;;5.10;99.50;;;;;;5089704;28;20105;-71
2023/03/03 07:21:16;;;;;;;40.05;16.75;;;5.00;99.70;;;;;;5089973;28;20032;-72
2023/03/03 07:23:44;;;;;;;38.28;17.23;;;5.10;99.50;;;;;;5091156;28;20442;-73
2023/03/03 07:26:15;;;;;;;37.92;14.98;;;5.10;99.60;;;;;;5094107;28;20038;-74
2023/03/03 07:28:44;;;;;;;37.30;15.35;;;5.00;99.60;;;;;;5092207;28;20059;-71
2023/03/03 07:31:32;;;;;;;34.55;14.43;;;4.90;99.80;;;;;;5093290;28;20070;-75
2023/03/03 07:33:59;;;;;;;35.15;14.38;;;5.00;99.70;;;;;;5092423;28;20032;-73
2023/03/03 07:36:28;;;;;;;37.80;14.50;;;5.20;99.50;;;;;;5072197;28;20216;-74
2023/03/03 07:38:58;;;;;;;28.60;12.38;;;5.10;99.30;;;;;;5053511;28;20124;-73
2023/03/03 07:41:23;;;;;;;28.40;12.15;;;4.90;99.20;;;;;;5053997;28;20033;-75
2023/03/03 07:43:53;;;;;;;29.65;12.07;;;4.90;99.60;;;;;;5054655;28;20398;-74
2023/03/03 07:46:33;;;;;;;24.77;11.18;;;4.80;99.50;;;;;;5053249;28;20467;-73
2023/03/03 07:49:00;;;;;;;27.48;11.98;;;4.80;99.60;;;;;;5052806;28;20144;-74
2023/03/03 07:51:35;;;;;;;29.35;12.50;;;5.00;99.40;;;;;;5052089;28;20056;-72
2023/03/03 07:54:28;;;;;;;32.03;12.40;;;5.10;99.00;;;;;;5053958;28;20040;-73
2023/03/03 07:57:10;;;;;;;26.30;12.05;;;5.20;98.80;;;;;;5054218;28;20406;-74
2023/03/03 07:59:40;;;;;;;25.00;11.57;;;5.10;99.00;;;;;;5053955;28;20362;-77
2023/03/03 08:02:36;;;;;;;28.25;12.48;;;5.00;99.30;;;;;;5054256;28;20047;-73
2023/03/03 08:05:28;;;;;;;32.53;12.85;;;5.00;99.40;;;;;;5052307;28;20114;-75
2023/03/03 08:08:09;;;;;;;33.58;13.85;;;5.20;99.00;;;;;;5052532;28;20051;-74
2023/03/03 08:10:47;;;;;;;29.92;14.23;;;5.20;98.90;;;;;;5053438;28;20041;-72
2023/03/03 08:13:20;;;;;;;28.80;13.00;;;5.20;99.10;;;;;;5052249;28;20033;-74
2023/03/03 08:15:51;;;;;;;26.73;12.60;;;5.10;99.30;;;;;;5053541;28;20039;-74
2023/03/03 08:18:35;;;;;;;32.00;13.90;;;4.90;99.30;;;;;;5052479;28;20087;-74
2023/03/03 08:21:22;;;;;;;31.02;13.18;;;4.80;99.50;;;;;;5053215;28;20032;-74
2023/03/03 08:23:50;;;;;;;29.27;13.25;;;5.00;99.60;;;;;;5053412;28;20053;-75
2023/03/03 08:26:16;;;;;;;32.60;14.15;;;5.10;99.40;;;;;;5054052;28;20031;-76
2023/03/03 08:28:43;;;;;;;28.27;12.57;;;5.20;99.20;;;;;;5051065;28;20123;-76
2023/03/03 08:31:08;;;;;;;31.95;13.48;;;5.30;98.90;;;;;;5051767;28;20045;-72
2023/03/03 08:33:34;;;;;;;29.30;13.27;;;5.40;98.80;;;;;;5052474;28;20044;-74
2023/03/03 08:36:00;;;;;;;31.30;13.25;;;5.30;99.20;;;;;;5052345;28;20041;-73
2023/03/03 08:38:26;;;;;;;28.55;11.50;;;5.40;98.90;;;;;;5053411;28;20341;-73
2023/03/03 08:40:51;;;;;;;30.48;12.02;;;5.40;98.60;;;;;;5052483;28;20390;-75
2023/03/03 08:43:20;;;;;;;33.92;13.07;;;5.40;98.60;;;;;;5052148;28;20029;-74
2023/03/03 08:45:50;;;;;;;31.08;12.48;;;5.50;98.30;;;;;;5051258;28;20113;-74
2023/03/03 08:48:16;;;;;;;30.17;12.30;;;5.60;98.30;;;;;;5051102;28;20044;-75
2023/03/03 08:50:43;;;;;;;27.52;12.05;;;5.60;98.10;;;;;;5052594;28;20054;-73
2023/03/03 08:53:09;;;;;;;33.40;13.70;;;5.60;98.30;;;;;;5053201;28;20033;-73
2023/03/03 08:55:35;;;;;;;34.15;13.93;;;5.60;98.30;;;;;;5051809;28;20442;-74
2023/03/03 08:58:01;;;;;;;32.15;14.25;;;5.50;98.30;;;;;;5052001;28;20055;-74
2023/03/03 09:00:26;;;;;;;36.97;14.43;;;5.50;98.20;;;;;;5052244;28;20041;-74
2023/03/03 09:02:53;;;;;;;32.45;15.32;;;5.70;98.60;;;;;;5051110;28;20052;-74
2023/03/03 09:05:20;;;;;;;41.50;16.40;;;5.50;98.10;;;;;;5051877;28;20460;-73
2023/03/03 09:07:47;;;;;;;53.87;20.23;;;5.60;98.50;;;;;;5051326;28;20048;-74
2023/03/03 09:10:16;;;;;;;51.07;18.90;;;5.40;98.50;;;;;;5051690;28;20494;-73
2023/03/03 09:12:47;;;;;;;47.45;19.00;;;5.60;98.70;;;;;;5051508;28;20048;-73
2023/03/03 09:15:21;;;;;;;47.35;20.15;;;5.60;98.60;;;;;;5051504;28;20025;-75
2023/03/03 09:17:48;;;;;;;47.22;19.92;;;5.70;98.20;;;;;;5051029;28;20430;-73
2023/03/03 09:20:40;;;;;;;40.75;19.70;;;5.60;98.50;;;;;;5051710;28;20336;-76
2023/03/03 09:23:34;;;;;;;44.58;18.67;;;5.70;98.60;;;;;;5041311;28;20040;-76
2023/03/03 09:26:29;;;;;;;45.35;20.05;;;5.80;98.30;;;;;;5052557;28;20120;-73
2023/03/03 09:29:10;;;;;;;43.20;20.38;;;5.80;98.20;;;;;;5052672;28;20049;-74
2023/03/03 09:31:41;;;;;;;48.35;20.65;;;6.00;98.40;;;;;;5052406;28;20059;-75
2023/03/03 09:34:21;;;;;;;47.33;20.02;;;5.90;98.50;;;;;;5050504;28;20075;-75
2023/03/03 09:36:48;;;;;;;50.33;20.38;;;6.00;98.20;;;;;;5052168;28;20112;-74
2023/03/03 09:39:23;;;;;;;49.05;20.63;;;6.00;97.90;;;;;;5051910;28;20124;-77
2023/03/03 09:42:00;;;;;;;45.53;19.58;;;6.00;98.00;;;;;;5051720;28;20075;-75
2023/03/03 09:44:37;;;;;;;44.92;19.50;;;6.10;98.00;;;;;;5049834;28;20048;-71
2023/03/03 09:47:14;;;;;;;51.20;20.88;;;6.20;97.80;;;;;;5051540;28;20050;-72
2023/03/03 09:49:58;;;;;;;49.17;21.33;;;6.20;97.90;;;;;;5051333;28;20040;-74
2023/03/03 09:52:42;;;;;;;107.47;44.45;;;6.20;97.90;;;;;;5051714;28;20355;-71
2023/03/03 09:55:14;;;;;;;54.00;22.98;;;6.30;97.80;;;;;;5050545;28;20056;-73
2023/03/03 09:57:54;;;;;;;62.33;23.33;;;6.30;97.70;;;;;;5051752;28;20459;-71
2023/03/03 10:00:31;;;;;;;47.10;20.35;;;6.30;97.70;;;;;;5050697;28;20124;-73
2023/03/03 10:03:12;;;;;;;49.83;22.13;;;6.30;97.70;;;;;;5050331;28;20039;-72
2023/03/03 10:05:45;;;;;;;51.75;22.75;;;6.30;97.70;;;;;;5050239;28;20048;-75
2023/03/03 10:08:48;;;;;;;63.17;23.42;;;6.20;97.60;;;;;;5050663;28;20451;-73
2023/03/03 10:11:48;;;;;;;53.20;23.20;;;6.30;97.90;;;;;;5049905;28;20033;-74
2023/03/03 10:14:42;;;;;;;49.47;21.50;;;6.30;97.60;;;;;;5050564;28;20052;-75
2023/03/03 10:17:20;;;;;;;54.88;22.17;;;6.00;98.00;;;;;;5050487;28;20025;-78
2023/03/03 10:19:51;;;;;;;54.97;24.13;;;6.10;97.80;;;;;;5050431;28;20132;-73
2023/03/03 10:22:28;;;;;;;60.78;23.70;;;6.00;97.60;;;;;;5050883;28;20467;-75
2023/03/03 10:25:20;;;;;;;53.83;22.95;;;6.00;97.90;;;;;;5049618;28;20108;-73
2023/03/03 10:28:16;;;;;;;57.50;23.55;;;6.10;97.80;;;;;;5050337;28;20357;-73
2023/03/03 10:31:05;;;;;;;51.95;24.10;;;5.90;97.70;;;;;;5050195;28;20041;-73
2023/03/03 10:33:52;;;;;;;54.58;23.50;;;6.00;97.70;;;;;;5049145;28;20490;-73
2023/03/03 10:36:38;;;;;;;53.53;24.27;;;6.10;98.10;;;;;;5050213;28;20037;-74
2023/03/03 10:39:33;;;;;;;54.90;23.33;;;6.00;97.90;;;;;;5050236;28;20492;-74
2023/03/03 10:42:23;;;;;;;55.13;23.95;;;6.10;97.50;;;;;;5049413;28;20463;-74
2023/03/03 10:45:27;;;;;;;64.32;26.95;;;6.30;97.50;;;;;;5050379;28;20021;-75
2023/03/03 10:47:56;;;;;;;69.45;29.10;;;6.00;97.30;;;;;;5048579;28;20017;-77
2023/03/03 10:50:36;;;;;;;71.75;27.35;;;6.20;97.70;;;;;;5050393;28;20021;-77
2023/03/03 10:53:30;;;;;;;62.85;25.75;;;6.30;97.60;;;;;;5050382;28;20032;-78
2023/03/03 10:56:04;;;;;;;62.92;25.77;;;6.40;97.40;;;;;;5050266;28;20127;-75
2023/03/03 10:59:02;;;;;;;58.60;26.33;;;6.40;97.00;;;;;;5052604;28;20060;-76
2023/03/03 11:01:55;;;;;;;60.00;24.75;;;6.10;97.00;;;;;;5054028;28;20490;-75
2023/03/03 11:04:36;;;;;;;60.58;25.45;;;6.10;97.40;;;;;;5054039;28;20112;-73
2023/03/03 11:07:17;;;;;;;58.72;22.95;;;6.10;97.20;;;;;;5053181;28;20033;-74
2023/03/03 11:09:54;;;;;;;66.30;25.73;;;6.40;97.50;;;;;;5053583;28;20025;-75
2023/03/03 11:12:25;;;;;;;51.80;22.85;;;6.40;97.20;;;;;;5053687;28;20044;-75
2023/03/03 11:15:18;;;;;;;61.45;24.67;;;6.50;97.10;;;;;;5051991;28;20025;-74
2023/03/03 11:17:49;;;;;;;61.83;24.60;;;6.40;97.00;;;;;;5052824;28;20032;-75
2023/03/03 11:20:21;;;;;;;59.00;23.50;;;6.50;97.10;;;;;;5053884;28;20483;-78
2023/03/03 11:23:16;;;;;;;59.05;24.30;;;6.50;97.20;;;;;;5053523;28;20068;-76
2023/03/03 11:25:46;;;;;;;57.00;24.20;;;6.50;96.90;;;;;;5052042;28;20127;-74
2023/03/03 11:29:03;;;;;;;55.42;22.27;;;6.70;96.80;;;;;;5053590;28;20022;-74
2023/03/03 11:31:41;;;;;;;;;;;6.90;96.60;;;;;;5047485;28;20041;-72
2023/03/03 11:34:28;;;;;;;73.32;29.25;;;7.00;96.30;;;;;;5053371;28;20254;-74
2023/03/03 11:37:03;;;;;;;57.78;25.45;;;7.00;96.30;;;;;;5053122;28;20094;-74
2023/03/03 11:39:29;;;;;;;64.00;26.38;;;7.00;96.00;;;;;;5052829;28;20411;-74
2023/03/03 11:42:32;;;;;;;65.63;27.25;;;7.30;96.20;;;;;;5052441;28;20459;-74
2023/03/03 11:45:17;;;;;;;64.07;25.67;;;7.30;96.00;;;;;;5015858;28;20486;-73
2023/03/03 11:47:48;;;;;;;61.38;25.10;;;7.20;95.80;;;;;;5051332;28;20465;-72
2023/03/03 11:50:30;;;;;;;58.78;24.17;;;7.00;96.30;;;;;;5053247;28;20037;-76
2023/03/03 11:53:14;;;;;;;60.10;23.40;;;6.80;96.40;;;;;;5052672;28;20041;-73
2023/03/03 11:55:44;;;;;;;53.65;20.90;;;6.60;96.30;;;;;;5051508;28;20040;-73
2023/03/03 11:58:36;;;;;;;56.65;21.83;;;6.50;96.70;;;;;;5052387;28;20241;-73
2023/03/03 12:01:26;;;;;;;59.33;23.33;;;6.70;96.80;;;;;;5052403;28;20032;-72
2023/03/03 12:04:14;;;;;;;58.58;24.42;;;7.00;96.60;;;;;;5051201;28;20108;-73
2023/03/03 12:07:02;;;;;;;66.43;25.52;;;7.00;96.40;;;;;;5052592;28;20037;-72
2023/03/03 12:09:35;;;;;;;66.05;26.30;;;7.10;96.50;;;;;;5049723;28;20025;-72
2023/03/03 12:12:19;;;;;;;65.65;25.08;;;6.90;96.40;;;;;;5052409;28;20037;-74
2023/03/03 12:15:07;;;;;;;71.38;26.45;;;6.90;96.50;;;;;;5052366;28;20055;-75
2023/03/03 12:18:03;;;;;;;66.00;25.73;;;6.90;96.40;;;;;;5052298;28;20090;-75
2023/03/03 12:20:50;;;;;;;67.38;27.58;;;6.90;96.50;;;;;;5052467;28;20044;-74
2023/03/03 12:24:01;;;;;;;77.20;27.30;;;7.10;96.30;;;;;;5053240;28;20025;-75
2023/03/03 12:26:48;;;;;;;68.90;25.58;;;7.40;96.20;;;;;;5042042;28;20036;-75
2023/03/03 12:29:50;;;;;;;55.80;22.50;;;7.50;95.90;;;;;;5044849;28;20044;-75
2023/03/03 12:32:31;;;;;;;56.85;20.63;;;7.60;96.00;;;;;;5051045;28;20423;-75
2023/03/03 12:35:08;;;;;;;53.53;21.23;;;7.80;95.40;;;;;;5051360;28;20435;-75
2023/03/03 12:38:09;;;;;;;53.42;21.25;;;7.70;95.30;;;;;;5052238;28;20033;-75
2023/03/03 12:40:42;;;;;;;55.45;21.30;;;7.70;95.30;;;;;;5001086;28;20336;-77
2023/03/03 12:43:21;;;;;;;58.95;22.85;;;7.70;95.30;;;;;;5052595;28;20102;-74
2023/03/03 12:45:57;;;;;;;52.83;21.38;;;7.70;95.30;;;;;;5052270;28;20068;-75
2023/03/03 12:48:43;;;;;;;54.75;22.25;;;7.90;95.40;;;;;;5052085;28;20041;-78
2023/03/03 12:51:32;;;;;;;64.45;23.90;;;8.00;95.30;;;;;;5051650;28;20051;-75
2023/03/03 12:54:43;;;;;;;54.22;20.77;;;8.10;95.20;;;;;;5051795;28;20048;-75
2023/03/03 12:57:17;;;;;;;61.88;23.58;;;7.80;95.10;;;;;;5051865;28;20025;-74
2023/03/03 13:00:12;;;;;;;51.13;19.75;;;7.70;95.10;;;;;;5050248;28;20099;-73
2023/03/03 13:02:44;;;;;;;49.00;19.55;;;7.90;95.40;;;;;;5050575;28;20025;-73
2023/03/03 13:05:09;;;;;;;54.67;22.10;;;8.00;95.10;;;;;;5052460;28;20096;-76
2023/03/03 13:08:07;;;;;;;58.67;23.85;;;7.80;95.10;;;;;;5052481;28;20031;-76
2023/03/03 13:11:19;;;;;;;58.13;22.02;;;7.80;95.50;;;;;;5050064;28;20037;-75